Country
Station

 

Weather  for  Raleigh/Durham, Raleigh-Durham International Airport  -  United States    United States

  
8 °C (46 °F)
    
 
 

Current METAR for Raleigh/Durham, Raleigh-Durham International Airport is :

KRDU 192351Z 03005KT 10SM SCT250 08/M06 A3034 RMK AO2 SLP277 T00831056 10128 20083 53001

 

This is a report for Raleigh/Durham, Raleigh-Durham International Airport - United States.
 
The report was made a moment ago, at 23:51 UTC .
The wind was blowing at a speed of 2.6 meters per second (5.8 miles per hour) from north/northeast (030°).
 
The temperature was 8 °C (46 °F), with a dew-point at -6 °C (21 °F).
The atmospheric pressure was 1027 hPa (30.34 inHg).
The relative humidity was 36.4%.
 
There were scattered clouds at a height of 7620 meters (25000 feet).
 
The overall visibility was 16.1 kilometers (10.0 miles).
 

 
 
 
 

Country :   A   B   C   D   E   F   G   H   I   J   K   L   M   N   O   P   Q   R   S   T   U   V   W   Y   Z

 

Site Info  |  Disclaimer  |  Credits  |  Privacy
Contact us  |  Add to favorites
© 2013-2019 METARs - All rights reserved